createdAt,value
2018-10-01T05:32:56.847Z,8.90
2018-10-01T05:35:24.349Z,8.90
2018-10-01T05:37:51.871Z,8.80
2018-10-01T05:40:19.348Z,8.70
2018-10-01T05:42:46.889Z,8.70
2018-10-01T05:45:14.372Z,8.80
2018-10-01T05:47:41.863Z,8.80
2018-10-01T05:50:09.327Z,8.80
2018-10-01T05:52:36.806Z,8.90
2018-10-01T05:55:04.289Z,8.90
2018-10-01T05:57:31.842Z,8.90
2018-10-01T05:59:59.246Z,9.00
2018-10-01T06:02:26.722Z,9.00
2018-10-01T06:04:54.318Z,9.00
2018-10-01T06:07:21.733Z,9.10
2018-10-01T06:09:49.229Z,9.20
2018-10-01T06:12:16.706Z,9.20
2018-10-01T06:14:44.237Z,9.30
2018-10-01T06:17:12.008Z,9.40
2018-10-01T06:19:39.537Z,9.30
2018-10-01T06:22:07.042Z,9.30
2018-10-01T06:24:34.517Z,9.30
2018-10-01T06:27:01.969Z,9.30
2018-10-01T06:29:29.430Z,9.30
2018-10-01T06:31:56.934Z,9.30
2018-10-01T06:34:24.490Z,9.30
2018-10-01T06:36:51.959Z,9.30
2018-10-01T06:39:19.426Z,9.30
2018-10-01T06:41:46.978Z,9.30
2018-10-01T06:44:14.492Z,9.40
2018-10-01T06:46:41.953Z,9.30
2018-10-01T06:49:09.428Z,9.40
2018-10-01T06:51:36.927Z,9.30
2018-10-01T06:54:07.435Z,9.40
2018-10-01T06:56:35.009Z,9.40
2018-10-01T06:59:02.762Z,9.40
2018-10-01T07:01:30.285Z,9.40
2018-10-01T07:03:58.611Z,9.40
2018-10-01T07:06:26.069Z,9.50
2018-10-01T07:08:53.558Z,9.50
2018-10-01T07:11:21.146Z,9.50
2018-10-01T07:13:48.521Z,9.60
2018-10-01T07:16:16.018Z,9.60
2018-10-01T07:18:43.494Z,9.60
2018-10-01T07:21:10.964Z,9.60
2018-10-01T07:23:38.449Z,9.70
2018-10-01T07:26:05.935Z,9.80
2018-10-01T07:28:34.297Z,9.70
2018-10-01T07:31:01.770Z,9.70
2018-10-01T07:33:29.294Z,9.80
2018-10-01T07:35:56.786Z,9.80
2018-10-01T07:38:24.333Z,9.80
2018-10-01T07:40:51.787Z,9.90
2018-10-01T07:43:19.261Z,9.80
2018-10-01T07:45:46.739Z,9.80
2018-10-01T07:48:14.262Z,9.80
2018-10-01T07:50:41.811Z,9.90
2018-10-01T07:53:09.918Z,9.90
2018-10-01T07:55:38.294Z,10.00
2018-10-01T07:58:07.049Z,10.00
2018-10-01T08:00:35.447Z,10.20
2018-10-01T08:03:04.126Z,10.10
2018-10-01T08:05:32.491Z,10.10
2018-10-01T08:08:01.088Z,10.20
2018-10-01T08:10:29.637Z,10.20
2018-10-01T08:12:57.987Z,10.20
2018-10-01T08:15:26.167Z,10.30
2018-10-01T08:17:54.334Z,10.40
2018-10-01T08:20:21.901Z,10.50
2018-10-01T08:22:49.359Z,10.50
2018-10-01T08:25:16.861Z,10.50
2018-10-01T08:27:44.445Z,10.40
2018-10-01T08:30:11.985Z,10.40
2018-10-01T08:32:39.513Z,10.40
2018-10-01T08:35:06.965Z,10.40
2018-10-01T08:37:34.545Z,10.50
2018-10-01T08:40:02.158Z,10.70
2018-10-01T08:42:29.737Z,10.80
2018-10-01T08:44:57.263Z,11.00
2018-10-01T08:47:25.526Z,11.20
2018-10-01T08:50:12.518Z,11.20
2018-10-01T08:52:43.490Z,11.20
2018-10-01T08:55:12.432Z,11.50
2018-10-01T08:57:39.928Z,11.70
2018-10-01T09:00:07.413Z,11.70
2018-10-01T09:02:34.972Z,11.60
2018-10-01T09:05:02.459Z,11.60
2018-10-01T09:19:23.016Z,11.70
2018-10-01T09:21:50.980Z,11.70
2018-10-01T09:24:18.970Z,11.90
2018-10-01T09:26:47.911Z,12.00
2018-10-01T09:29:15.639Z,12.00
2018-10-01T09:31:43.815Z,12.00
2018-10-01T09:34:11.308Z,12.10
2018-10-01T09:36:38.802Z,12.10
2018-10-01T09:39:07.597Z,12.10
2018-10-01T09:41:35.394Z,12.10
2018-10-01T09:44:03.218Z,12.00
2018-10-01T09:46:30.979Z,11.90
2018-10-01T09:48:58.856Z,11.80
2018-10-01T09:51:26.381Z,11.70
2018-10-01T09:53:54.208Z,11.60
2018-10-01T09:56:22.092Z,11.60
2018-10-01T09:58:49.769Z,11.60
2018-10-01T10:01:17.321Z,11.70
2018-10-01T10:03:45.158Z,11.70
2018-10-01T10:06:12.691Z,11.80
2018-10-01T10:08:40.373Z,11.90
2018-10-01T10:11:08.044Z,11.90
2018-10-01T10:13:35.577Z,11.90
2018-10-01T10:16:03.164Z,12.10
2018-10-01T10:18:30.607Z,12.30
2018-10-01T10:20:58.148Z,12.40
2018-10-01T10:23:26.416Z,12.40
2018-10-01T10:25:53.915Z,12.60
2018-10-01T10:28:21.500Z,12.70
2018-10-01T10:30:49.004Z,12.60
2018-10-01T10:33:16.481Z,12.60
2018-10-01T10:35:43.971Z,12.50
2018-10-01T10:38:11.499Z,12.40
2018-10-01T10:40:38.909Z,12.40
2018-10-01T10:43:06.417Z,12.40
2018-10-01T10:45:33.923Z,12.50
2018-10-01T10:48:01.439Z,12.70
2018-10-01T10:50:28.984Z,12.80
2018-10-01T10:52:56.404Z,12.70
2018-10-01T10:55:23.866Z,12.80
2018-10-01T10:57:51.339Z,12.90
2018-10-01T11:00:18.811Z,13.00
2018-10-01T11:02:46.971Z,13.20
2018-10-01T11:05:15.171Z,13.20
2018-10-01T11:07:43.957Z,13.30
2018-10-01T11:10:11.457Z,13.60
2018-10-01T11:12:38.985Z,13.60
2018-10-01T11:15:06.781Z,13.70
2018-10-01T11:17:35.067Z,13.70
2018-10-01T11:20:03.648Z,13.80
2018-10-01T11:22:32.986Z,13.90
2018-10-01T11:25:00.454Z,14.00
2018-10-01T11:27:28.080Z,14.20
2018-10-01T11:29:55.514Z,13.90
2018-10-01T11:32:23.668Z,14.00
2018-10-01T11:34:52.297Z,14.20
2018-10-01T11:37:20.636Z,14.40
2018-10-01T11:39:48.440Z,14.50
2018-10-01T11:42:16.654Z,14.50
2018-10-01T11:44:44.134Z,14.40
2018-10-01T11:47:12.088Z,14.20
2018-10-01T11:49:39.578Z,14.30
2018-10-01T11:52:07.227Z,14.30
2018-10-01T11:54:34.794Z,14.50
2018-10-01T11:57:02.415Z,14.70
2018-10-01T11:59:29.956Z,15.40
2018-10-01T12:01:57.653Z,16.10
2018-10-01T12:04:25.163Z,17.40
2018-10-01T12:06:52.633Z,18.00
2018-10-01T12:09:20.240Z,18.10
2018-10-01T12:11:47.684Z,17.30
2018-10-01T12:14:15.586Z,17.50
2018-10-01T12:16:43.055Z,17.30
2018-10-01T12:19:10.569Z,17.40
2018-10-01T12:21:38.207Z,17.10
2018-10-01T12:24:05.793Z,16.50
2018-10-01T12:26:33.277Z,15.80
2018-10-01T12:29:00.747Z,16.20
2018-10-01T12:31:28.276Z,16.00
2018-10-01T12:33:55.786Z,15.60
2018-10-01T12:36:23.667Z,15.40
2018-10-01T12:38:51.224Z,15.50
2018-10-01T12:41:19.445Z,17.40
2018-10-01T12:43:47.961Z,18.70
2018-10-01T12:46:15.430Z,17.30
2018-10-01T12:48:42.898Z,15.50
2018-10-01T12:51:10.364Z,15.10
2018-10-01T12:53:37.837Z,15.00
2018-10-01T12:56:05.422Z,14.90
2018-10-01T12:58:33.090Z,14.50
2018-10-01T13:01:00.742Z,14.30
2018-10-01T13:03:28.259Z,14.70
2018-10-01T13:05:55.737Z,15.30
2018-10-01T13:08:23.243Z,16.60
2018-10-01T13:10:50.789Z,17.70
2018-10-01T13:13:18.292Z,18.40
2018-10-01T13:15:47.806Z,17.90
2018-10-01T13:18:16.024Z,18.50
2018-10-01T13:20:44.515Z,19.00
2018-10-01T13:23:11.993Z,19.20
2018-10-01T13:25:39.541Z,19.00
2018-10-01T13:28:07.002Z,18.50
2018-10-01T13:30:35.255Z,19.30
2018-10-01T13:33:03.376Z,20.40
2018-10-01T13:35:31.563Z,20.30
2018-10-01T13:38:00.798Z,19.50
2018-10-01T13:40:29.621Z,18.80
2018-10-01T13:42:57.794Z,19.50
2018-10-01T13:45:25.984Z,20.50
2018-10-01T13:47:54.165Z,21.70
2018-10-01T13:50:22.331Z,20.70
2018-10-01T13:52:49.814Z,18.70
2018-10-01T13:55:17.298Z,16.70
2018-10-01T13:57:44.768Z,15.10
2018-10-01T14:00:12.242Z,14.00
2018-10-01T14:02:40.409Z,12.50
2018-10-01T14:05:07.898Z,11.20
2018-10-01T14:07:35.434Z,10.20
2018-10-01T14:10:02.837Z,9.80
2018-10-01T14:12:30.306Z,9.60
2018-10-01T14:14:57.785Z,9.50
2018-10-01T14:17:25.238Z,9.30
2018-10-01T14:19:52.874Z,9.30
2018-10-01T14:22:21.057Z,9.30
2018-10-01T14:24:48.696Z,9.40
2018-10-01T14:27:16.047Z,9.40
2018-10-01T14:29:43.513Z,9.40
2018-10-01T14:32:10.966Z,9.40
2018-10-01T14:34:38.428Z,9.40
2018-10-01T14:37:05.893Z,9.50
2018-10-01T14:39:33.357Z,9.50
2018-10-01T14:42:00.886Z,9.40
2018-10-01T14:44:28.310Z,9.50
2018-10-01T14:46:55.786Z,9.50
2018-10-01T14:49:23.250Z,9.40
2018-10-01T14:51:50.718Z,9.30
2018-10-01T14:54:18.199Z,9.10
2018-10-01T14:56:45.691Z,9.00
2018-10-01T14:59:13.144Z,8.90
2018-10-01T15:01:40.635Z,8.80
2018-10-01T15:04:08.146Z,8.90
2018-10-01T15:06:35.748Z,9.00
2018-10-01T15:09:03.493Z,8.90
2018-10-01T15:11:30.954Z,9.00
2018-10-01T15:13:58.450Z,9.00
2018-10-01T15:16:26.077Z,9.00
2018-10-01T15:18:53.464Z,9.10
2018-10-01T15:21:20.961Z,9.20
2018-10-01T15:23:48.455Z,9.70
2018-10-01T15:26:15.921Z,10.20
2018-10-01T15:28:43.390Z,10.70
2018-10-01T15:31:10.866Z,10.80
2018-10-01T15:33:38.425Z,11.60
2018-10-01T15:36:05.920Z,11.80
2018-10-01T15:38:33.411Z,11.70
2018-10-01T15:41:00.938Z,11.70
2018-10-01T15:43:29.106Z,11.80
2018-10-01T15:45:56.608Z,11.50
2018-10-01T15:48:25.130Z,11.20
2018-10-01T15:50:52.606Z,11.30
2018-10-01T15:53:20.090Z,11.30
2018-10-01T15:55:49.488Z,10.50
2018-10-01T15:58:16.985Z,9.80
2018-10-01T16:00:44.454Z,9.70
2018-10-01T16:03:11.999Z,9.50
2018-10-01T16:05:40.499Z,9.70
2018-10-01T16:08:07.974Z,9.70
2018-10-01T16:10:35.487Z,9.90
2018-10-01T16:13:02.940Z,9.90
2018-10-01T16:15:30.455Z,9.90
2018-10-01T16:17:57.994Z,9.80
2018-10-01T16:20:25.464Z,9.70
2018-10-01T16:22:53.131Z,9.70
2018-10-01T16:25:20.630Z,10.20
2018-10-01T16:27:48.161Z,10.20
2018-10-01T16:30:15.696Z,9.60
2018-10-01T16:32:43.204Z,9.30
2018-10-01T16:35:10.853Z,9.10
2018-10-01T16:37:38.375Z,9.00
2018-10-01T16:40:05.930Z,8.90
2018-10-01T16:42:33.442Z,8.80
2018-10-01T16:45:00.947Z,8.80
2018-10-01T16:47:28.430Z,8.80
2018-10-01T16:49:56.159Z,8.70
2018-10-01T16:52:23.680Z,8.70
2018-10-01T16:54:51.154Z,8.70
2018-10-01T16:57:18.650Z,8.60
2018-10-01T16:59:46.214Z,8.50
2018-10-01T17:02:13.734Z,8.50
2018-10-01T17:04:41.190Z,8.50
2018-10-01T17:07:09.509Z,8.40
2018-10-01T17:09:37.048Z,8.40
2018-10-01T17:12:04.584Z,8.30
2018-10-01T17:14:32.045Z,8.30
2018-10-01T17:16:59.615Z,8.20
2018-10-01T17:19:27.209Z,8.10
2018-10-01T17:21:54.586Z,8.10
2018-10-01T17:24:22.062Z,8.10
2018-10-01T17:26:49.561Z,8.10
2018-10-01T17:29:17.031Z,8.00
2018-10-01T17:31:44.549Z,7.90
2018-10-01T17:34:12.055Z,8.00
2018-10-01T17:36:39.538Z,7.90
2018-10-01T17:39:07.882Z,8.00
2018-10-01T17:41:35.445Z,8.00
2018-10-01T17:44:03.014Z,8.00
2018-10-01T17:46:30.505Z,8.20
2018-10-01T17:48:57.973Z,8.20
2018-10-01T17:51:25.475Z,8.20
2018-10-01T17:53:52.981Z,8.20
2018-10-01T17:56:20.502Z,8.20
2018-10-01T17:58:47.953Z,8.10
2018-10-01T18:01:15.527Z,8.00
2018-10-01T18:03:43.126Z,8.00
2018-10-01T18:06:10.677Z,8.00
2018-10-01T18:08:38.171Z,7.90
2018-10-01T18:11:05.889Z,7.90
2018-10-01T18:13:33.974Z,7.90
2018-10-01T18:16:01.454Z,7.90
2018-10-01T18:18:28.965Z,7.90
2018-10-01T18:20:56.438Z,7.80
2018-10-01T18:23:23.904Z,7.80
2018-10-01T18:25:51.411Z,7.70
2018-10-01T18:28:18.902Z,7.80
2018-10-01T18:30:46.430Z,7.70
2018-10-01T18:33:14.011Z,7.70
2018-10-01T18:35:41.496Z,7.70
2018-10-01T18:38:08.946Z,7.70
2018-10-01T18:40:36.449Z,7.60
2018-10-01T18:43:03.951Z,7.50
2018-10-01T18:45:31.453Z,7.60
2018-10-01T18:47:59.893Z,7.50
2018-10-01T18:50:27.331Z,7.30
2018-10-01T18:52:54.789Z,7.30
2018-10-01T18:55:22.280Z,7.30
2018-10-01T18:57:49.758Z,7.20
2018-10-01T19:00:18.367Z,7.20
2018-10-01T19:02:45.778Z,7.20
2018-10-01T19:05:13.237Z,7.00
2018-10-01T19:07:40.744Z,7.00
2018-10-01T19:10:08.622Z,7.10
2018-10-01T19:12:37.102Z,7.00
2018-10-01T19:15:05.226Z,7.00
2018-10-01T19:17:32.688Z,7.00
2018-10-01T19:20:00.157Z,7.10
2018-10-01T19:22:27.874Z,7.10
2018-10-01T19:24:55.359Z,7.10
2018-10-01T19:27:23.459Z,7.10
2018-10-01T19:29:51.206Z,7.00
2018-10-01T19:32:19.043Z,7.00
2018-10-01T19:34:47.239Z,7.00
2018-10-01T19:37:14.778Z,6.90
2018-10-01T19:39:43.155Z,6.90
2018-10-01T19:42:10.876Z,7.00
2018-10-01T19:44:38.705Z,7.00
2018-10-01T19:47:06.578Z,7.00
2018-10-01T19:49:34.303Z,7.00
2018-10-01T19:52:02.164Z,6.90
2018-10-01T19:54:29.626Z,6.90
2018-10-01T19:56:57.817Z,6.90
2018-10-01T19:59:25.759Z,6.90
2018-10-01T20:01:53.933Z,6.80
2018-10-01T20:04:21.715Z,6.70
2018-10-01T20:06:49.180Z,6.80
2018-10-01T20:09:17.470Z,6.80
2018-10-01T20:11:45.420Z,6.70
2018-10-01T20:14:13.666Z,6.70
2018-10-01T20:16:41.843Z,6.60
2018-10-01T20:19:09.359Z,6.50
2018-10-01T20:21:37.567Z,6.60
2018-10-01T20:24:05.297Z,6.70
2018-10-01T20:26:33.102Z,6.60
2018-10-01T20:29:02.693Z,6.70
2018-10-01T20:31:30.842Z,6.60
2018-10-01T20:33:59.188Z,6.70
2018-10-01T20:36:27.080Z,6.60
2018-10-01T20:38:58.371Z,6.60
2018-10-01T20:41:26.399Z,6.60
2018-10-01T20:43:53.826Z,6.60
2018-10-01T20:46:21.884Z,6.60
2018-10-01T20:48:49.644Z,6.50
2018-10-01T20:51:17.926Z,6.50
2018-10-01T20:53:45.507Z,6.50
2018-10-01T20:56:13.043Z,6.50
2018-10-01T20:58:40.672Z,6.40
2018-10-01T21:01:08.113Z,6.40
2018-10-01T21:03:35.629Z,6.30
2018-10-01T21:06:03.303Z,6.40
2018-10-01T21:08:30.948Z,6.40
2018-10-01T21:10:58.377Z,6.40
2018-10-01T21:13:25.922Z,6.40
2018-10-01T21:15:53.393Z,6.30
2018-10-01T21:18:20.877Z,6.30
2018-10-01T21:20:48.341Z,6.30
2018-10-01T21:23:15.950Z,6.40
2018-10-01T21:25:43.436Z,6.30
2018-10-01T21:28:10.914Z,6.30
2018-10-01T21:30:38.381Z,6.40
2018-10-01T21:33:06.858Z,6.30
2018-10-01T21:35:34.331Z,6.30
2018-10-01T21:38:01.870Z,6.30
2018-10-01T21:40:29.325Z,6.30
2018-10-01T21:42:56.775Z,6.30
2018-10-01T21:45:24.310Z,6.30
2018-10-01T21:47:51.848Z,6.40
2018-10-01T21:50:19.352Z,6.40
2018-10-01T21:52:47.225Z,6.20
2018-10-01T21:55:14.889Z,6.20
2018-10-01T21:57:42.429Z,6.20
2018-10-01T22:00:11.220Z,6.30
2018-10-01T22:02:38.750Z,6.20
2018-10-01T22:05:06.366Z,6.20
2018-10-01T22:07:34.128Z,6.20
2018-10-01T22:10:01.616Z,6.10
2018-10-01T22:12:29.089Z,6.20
2018-10-01T22:14:56.570Z,6.20
2018-10-01T22:17:24.018Z,6.20
2018-10-01T22:19:51.492Z,6.20
2018-10-01T22:22:18.971Z,6.10
2018-10-01T22:24:46.481Z,6.10
2018-10-01T22:27:13.925Z,6.20
2018-10-01T22:29:41.407Z,6.20
2018-10-01T22:32:09.769Z,6.20
2018-10-01T22:34:37.235Z,6.10
2018-10-01T22:37:04.721Z,6.20
2018-10-01T22:39:34.205Z,6.20
2018-10-01T22:42:02.686Z,6.10
2018-10-01T22:44:36.883Z,6.00
2018-10-01T22:47:04.366Z,6.20
2018-10-01T22:49:31.845Z,6.20
2018-10-01T22:51:59.310Z,6.20
2018-10-01T22:54:26.773Z,6.00
2018-10-01T22:56:55.256Z,6.10
2018-10-01T22:59:22.742Z,6.10
